createdAt,value
2024-01-24T00:00:55.664Z,1.05
2024-01-24T00:01:58.298Z,1.06
2024-01-24T00:03:01.016Z,1.06
2024-01-24T00:04:03.734Z,1.06
2024-01-24T00:05:07.073Z,1.07
2024-01-24T00:06:09.772Z,1.07
2024-01-24T00:07:12.369Z,1.07
2024-01-24T00:08:14.975Z,1.07
2024-01-24T00:09:17.668Z,1.06
2024-01-24T00:10:20.287Z,1.06
2024-01-24T00:11:22.848Z,1.04
2024-01-24T00:12:25.499Z,1.03
2024-01-24T00:13:28.093Z,1.02
2024-01-24T00:14:30.674Z,1.00
2024-01-24T00:15:33.284Z,0.97
2024-01-24T00:16:35.874Z,0.96
2024-01-24T00:17:38.539Z,0.94
2024-01-24T00:18:41.181Z,0.92
2024-01-24T00:19:43.923Z,0.89
2024-01-24T00:20:46.573Z,0.88
2024-01-24T00:21:49.285Z,0.86
2024-01-24T00:22:52.138Z,0.84
2024-01-24T00:23:54.698Z,0.82
2024-01-24T00:24:57.390Z,0.80
2024-01-24T00:26:00.096Z,0.78
2024-01-24T00:27:03.059Z,0.76
2024-01-24T00:28:07.186Z,0.74
2024-01-24T00:29:09.797Z,0.72
2024-01-24T00:30:12.528Z,0.70
2024-01-24T00:31:15.113Z,0.68
2024-01-24T00:32:17.667Z,0.66
2024-01-24T00:33:21.564Z,0.65
2024-01-24T00:34:24.427Z,0.64
2024-01-24T00:35:27.084Z,0.64
2024-01-24T00:36:29.936Z,0.63
2024-01-24T00:37:32.605Z,0.63
2024-01-24T00:38:35.199Z,0.64
2024-01-24T00:39:37.864Z,0.64
2024-01-24T00:40:40.456Z,0.65
2024-01-24T00:41:43.374Z,0.66
2024-01-24T00:42:46.146Z,0.67
2024-01-24T00:43:48.800Z,0.68
2024-01-24T00:44:52.913Z,0.69
2024-01-24T00:45:56.153Z,0.69
2024-01-24T00:46:58.846Z,0.70
2024-01-24T00:48:01.686Z,0.70
2024-01-24T00:49:04.825Z,0.70
2024-01-24T00:50:08.485Z,0.70
2024-01-24T00:51:11.093Z,0.69
2024-01-24T00:52:13.882Z,0.69
2024-01-24T00:53:21.136Z,0.70
2024-01-24T00:54:23.793Z,0.70
2024-01-24T00:55:28.248Z,0.69
2024-01-24T00:56:30.837Z,0.69
2024-01-24T00:57:33.439Z,0.69
2024-01-24T00:58:36.077Z,0.69
2024-01-24T00:59:38.703Z,0.68
2024-01-24T01:00:41.411Z,0.68
2024-01-24T01:01:44.021Z,0.68
2024-01-24T01:02:46.616Z,0.68
2024-01-24T01:03:49.345Z,0.67
2024-01-24T01:04:52.348Z,0.66
2024-01-24T01:05:54.998Z,0.65
2024-01-24T01:06:57.584Z,0.64
2024-01-24T01:08:00.184Z,0.64
2024-01-24T01:09:03.405Z,0.65
2024-01-24T01:10:09.317Z,0.64
2024-01-24T01:11:11.959Z,0.63
2024-01-24T01:12:14.592Z,0.62
2024-01-24T01:13:17.203Z,0.60
2024-01-24T01:14:19.826Z,0.56
2024-01-24T01:15:22.556Z,0.55
2024-01-24T01:16:25.166Z,0.54
2024-01-24T01:17:27.824Z,0.54
2024-01-24T01:18:30.589Z,0.52
2024-01-24T01:19:33.326Z,0.51
2024-01-24T01:20:35.977Z,0.49
2024-01-24T01:21:41.550Z,0.46
2024-01-24T01:22:44.307Z,0.44
2024-01-24T01:23:46.963Z,0.40
2024-01-24T01:24:49.751Z,0.37
2024-01-24T01:25:52.449Z,0.34
2024-01-24T01:26:55.287Z,0.30
2024-01-24T01:27:57.933Z,0.27
2024-01-24T01:29:00.531Z,0.24
2024-01-24T01:30:03.228Z,0.22
2024-01-24T01:31:05.819Z,0.21
2024-01-24T01:32:08.423Z,0.20
2024-01-24T01:33:11.070Z,0.20
2024-01-24T01:34:13.922Z,0.20
2024-01-24T01:35:16.586Z,0.19
2024-01-24T01:36:23.390Z,0.19
2024-01-24T01:37:26.759Z,0.19
2024-01-24T01:38:29.560Z,0.19
2024-01-24T01:39:32.190Z,0.19
2024-01-24T01:40:34.794Z,0.19
2024-01-24T01:41:38.319Z,0.20
2024-01-24T01:42:47.375Z,0.20
2024-01-24T01:43:50.031Z,0.20
2024-01-24T01:44:52.652Z,0.19
2024-01-24T01:45:59.969Z,0.18
2024-01-24T01:47:02.587Z,0.16
2024-01-24T01:48:05.846Z,0.15
2024-01-24T01:49:08.926Z,0.15
2024-01-24T01:50:11.973Z,0.15
2024-01-24T01:51:14.973Z,0.15
2024-01-24T01:52:18.199Z,0.16
2024-01-24T01:53:21.311Z,0.17
2024-01-24T01:54:24.229Z,0.18
2024-01-24T01:55:27.468Z,0.20
2024-01-24T01:56:30.197Z,0.21
2024-01-24T01:57:35.259Z,0.22
2024-01-24T01:58:38.615Z,0.22
2024-01-24T01:59:44.512Z,0.22
2024-01-24T02:00:50.326Z,0.22
2024-01-24T02:01:55.233Z,0.22
2024-01-24T02:02:57.845Z,0.22
2024-01-24T02:04:00.828Z,0.23
2024-01-24T02:05:04.093Z,0.23
2024-01-24T02:06:06.995Z,0.23
2024-01-24T02:07:09.728Z,0.23
2024-01-24T02:08:12.357Z,0.24
2024-01-24T02:09:15.032Z,0.25
2024-01-24T02:10:17.694Z,0.25
2024-01-24T02:11:20.564Z,0.25
2024-01-24T02:12:23.248Z,0.26
2024-01-24T02:13:31.423Z,0.26
2024-01-24T02:14:34.221Z,0.27
2024-01-24T02:15:36.854Z,0.27
2024-01-24T02:16:39.492Z,0.28
2024-01-24T02:17:42.138Z,0.28
2024-01-24T02:18:47.590Z,0.28
2024-01-24T02:19:50.252Z,0.28
2024-01-24T02:20:53.037Z,0.28
2024-01-24T02:21:55.663Z,0.28
2024-01-24T02:22:58.409Z,0.28
2024-01-24T02:24:01.577Z,0.28
2024-01-24T02:25:04.599Z,0.28
2024-01-24T02:26:07.401Z,0.27
2024-01-24T02:27:10.133Z,0.27
2024-01-24T02:28:15.695Z,0.27
2024-01-24T02:29:18.323Z,0.26
2024-01-24T02:30:20.931Z,0.26
2024-01-24T02:31:23.517Z,0.25
2024-01-24T02:32:26.161Z,0.24
2024-01-24T02:33:28.909Z,0.23
2024-01-24T02:34:31.742Z,0.22
2024-01-24T02:35:34.482Z,0.21
2024-01-24T02:36:37.058Z,0.19
2024-01-24T02:37:42.600Z,0.18
2024-01-24T02:38:45.220Z,0.17
2024-01-24T02:39:48.723Z,0.16
2024-01-24T02:40:51.389Z,0.15
2024-01-24T02:41:54.383Z,0.15
2024-01-24T02:42:57.162Z,0.14
2024-01-24T02:43:59.771Z,0.13
2024-01-24T02:45:02.436Z,0.11
2024-01-24T02:46:05.219Z,0.10
2024-01-24T02:47:07.841Z,0.09
2024-01-24T02:48:10.627Z,0.09
2024-01-24T02:49:13.357Z,0.08
2024-01-24T02:50:16.145Z,0.08
2024-01-24T02:51:25.204Z,0.08
2024-01-24T02:52:27.818Z,0.07
2024-01-24T02:53:30.430Z,0.07
2024-01-24T02:54:33.448Z,0.07
2024-01-24T02:55:36.061Z,0.08
2024-01-24T02:56:39.583Z,0.08
2024-01-24T02:57:42.545Z,0.08
2024-01-24T02:58:45.158Z,0.08
2024-01-24T02:59:47.756Z,0.08
2024-01-24T03:00:50.395Z,0.07
2024-01-24T03:01:53.018Z,0.07
2024-01-24T03:02:55.558Z,0.07
2024-01-24T03:03:58.166Z,0.06
2024-01-24T03:05:00.882Z,0.06
2024-01-24T03:06:03.527Z,0.07
2024-01-24T03:07:06.336Z,0.07
2024-01-24T03:08:09.045Z,0.06
2024-01-24T03:09:11.665Z,0.05
2024-01-24T03:10:14.234Z,0.05
2024-01-24T03:11:17.152Z,0.03
2024-01-24T03:12:20.759Z,0.01
2024-01-24T03:13:23.439Z,-0.02
2024-01-24T03:14:26.113Z,-0.05
2024-01-24T03:15:28.841Z,-0.08
2024-01-24T03:16:32.090Z,-0.09
2024-01-24T03:17:35.314Z,-0.12
2024-01-24T03:18:38.863Z,-0.13
2024-01-24T03:19:41.537Z,-0.15
2024-01-24T03:20:44.161Z,-0.16
2024-01-24T03:21:47.825Z,-0.17
2024-01-24T03:22:50.952Z,-0.18
2024-01-24T03:23:53.558Z,-0.20
2024-01-24T03:24:56.261Z,-0.21
2024-01-24T03:25:59.834Z,-0.22
2024-01-24T03:27:02.544Z,-0.23
2024-01-24T03:28:05.257Z,-0.23
2024-01-24T03:29:08.244Z,-0.23
2024-01-24T03:30:11.555Z,-0.23
2024-01-24T03:31:14.336Z,-0.23
2024-01-24T03:32:17.008Z,-0.24
2024-01-24T03:33:19.632Z,-0.24
2024-01-24T03:34:23.171Z,-0.23
2024-01-24T03:35:25.898Z,-0.23
2024-01-24T03:36:28.512Z,-0.23
2024-01-24T03:37:31.150Z,-0.22
2024-01-24T03:38:34.372Z,-0.22
2024-01-24T03:39:37.527Z,-0.21
2024-01-24T03:40:40.192Z,-0.21
2024-01-24T03:41:42.803Z,-0.20
2024-01-24T03:42:45.390Z,-0.19
2024-01-24T03:43:49.382Z,-0.19
2024-01-24T03:44:52.085Z,-0.17
2024-01-24T03:45:54.787Z,-0.16
2024-01-24T03:46:57.455Z,-0.14
2024-01-24T03:48:01.772Z,-0.13
2024-01-24T03:49:04.481Z,-0.10
2024-01-24T03:50:07.424Z,-0.07
2024-01-24T03:51:10.212Z,-0.05
2024-01-24T03:52:12.807Z,-0.03
2024-01-24T03:53:15.930Z,-0.01
2024-01-24T03:54:18.511Z,0.01
2024-01-24T03:55:21.132Z,0.04
2024-01-24T03:56:24.006Z,0.07
2024-01-24T03:57:26.660Z,0.09
2024-01-24T03:58:29.263Z,0.11
2024-01-24T03:59:31.866Z,0.13
2024-01-24T04:00:34.746Z,0.15
2024-01-24T04:01:38.080Z,0.16
2024-01-24T04:02:41.678Z,0.16
2024-01-24T04:03:44.420Z,0.18
2024-01-24T04:04:47.158Z,0.19
2024-01-24T04:05:49.833Z,0.20
2024-01-24T04:06:52.528Z,0.21
2024-01-24T04:07:55.185Z,0.22
2024-01-24T04:08:57.798Z,0.23
2024-01-24T04:10:00.611Z,0.24
2024-01-24T04:11:03.267Z,0.25
2024-01-24T04:12:06.116Z,0.25
2024-01-24T04:13:08.727Z,0.26
2024-01-24T04:14:11.455Z,0.26
2024-01-24T04:15:14.085Z,0.27
2024-01-24T04:16:16.668Z,0.27
2024-01-24T04:17:20.545Z,0.28
2024-01-24T04:18:23.239Z,0.29
2024-01-24T04:19:25.937Z,0.30
2024-01-24T04:20:29.885Z,0.30
2024-01-24T04:21:32.574Z,0.29
2024-01-24T04:22:36.352Z,0.30
2024-01-24T04:23:38.965Z,0.30
2024-01-24T04:24:41.747Z,0.30
2024-01-24T04:25:44.449Z,0.30
2024-01-24T04:26:47.045Z,0.30
2024-01-24T04:27:50.114Z,0.30
2024-01-24T04:28:52.820Z,0.31
2024-01-24T04:29:55.554Z,0.31
2024-01-24T04:30:58.182Z,0.32
2024-01-24T04:32:00.921Z,0.33
2024-01-24T04:33:03.775Z,0.34
2024-01-24T04:34:06.944Z,0.37
2024-01-24T04:35:09.966Z,0.39
2024-01-24T04:36:12.853Z,0.42
2024-01-24T04:37:15.627Z,0.44
2024-01-24T04:38:18.445Z,0.46
2024-01-24T04:39:21.638Z,0.48
2024-01-24T04:40:24.547Z,0.50
2024-01-24T04:41:27.127Z,0.51
2024-01-24T04:42:29.850Z,0.53
2024-01-24T04:43:32.442Z,0.54
2024-01-24T04:44:35.050Z,0.56
2024-01-24T04:45:38.301Z,0.57
2024-01-24T04:46:43.771Z,0.58
2024-01-24T04:47:47.188Z,0.59
2024-01-24T04:48:50.197Z,0.60
2024-01-24T04:49:52.930Z,0.62
2024-01-24T04:50:55.648Z,0.64
2024-01-24T04:51:58.316Z,0.66
2024-01-24T04:53:00.941Z,0.68
2024-01-24T04:54:03.577Z,0.70
2024-01-24T04:55:12.094Z,0.71
2024-01-24T04:56:15.345Z,0.73
2024-01-24T04:57:18.117Z,0.76
2024-01-24T04:58:20.735Z,0.78
2024-01-24T04:59:23.389Z,0.80
2024-01-24T05:00:26.064Z,0.82
2024-01-24T05:01:29.532Z,0.84
2024-01-24T05:02:32.201Z,0.87
2024-01-24T05:03:35.021Z,0.88
2024-01-24T05:04:37.761Z,0.90
2024-01-24T05:05:41.668Z,0.91
2024-01-24T05:06:44.443Z,0.93
2024-01-24T05:07:47.045Z,0.95
2024-01-24T05:08:49.629Z,0.97
2024-01-24T05:09:52.375Z,1.00
2024-01-24T05:10:55.025Z,1.02
2024-01-24T05:11:57.638Z,1.04
2024-01-24T05:13:00.276Z,1.06
2024-01-24T05:14:02.852Z,1.07
2024-01-24T05:15:06.008Z,1.09
2024-01-24T05:16:08.571Z,1.11
2024-01-24T05:17:11.210Z,1.13
2024-01-24T05:18:13.916Z,1.15
2024-01-24T05:19:17.276Z,1.16
2024-01-24T05:20:20.055Z,1.18
2024-01-24T05:21:22.794Z,1.20
2024-01-24T05:22:25.414Z,1.21
2024-01-24T05:23:28.032Z,1.24
2024-01-24T05:24:31.010Z,1.26
2024-01-24T05:25:33.788Z,1.28
2024-01-24T05:26:37.742Z,1.30
2024-01-24T05:27:40.410Z,1.31
2024-01-24T05:28:43.039Z,1.32
2024-01-24T05:29:48.720Z,1.34
2024-01-24T05:30:51.310Z,1.36
2024-01-24T05:31:53.886Z,1.37
2024-01-24T05:32:58.367Z,1.39
2024-01-24T05:34:04.194Z,1.42
2024-01-24T05:35:07.391Z,1.44
2024-01-24T05:36:11.049Z,1.46
2024-01-24T05:37:13.633Z,1.48
2024-01-24T05:38:16.329Z,1.50
2024-01-24T05:39:18.977Z,1.52
2024-01-24T05:40:21.807Z,1.54
2024-01-24T05:41:24.463Z,1.56
2024-01-24T05:42:27.070Z,1.58
2024-01-24T05:44:11.068Z,1.59
2024-01-24T05:45:13.806Z,1.61
2024-01-24T05:46:16.846Z,1.63
2024-01-24T05:47:19.528Z,1.65
2024-01-24T05:48:22.489Z,1.67
2024-01-24T05:49:25.364Z,1.68
2024-01-24T05:50:28.178Z,1.70
2024-01-24T05:51:30.814Z,1.72
2024-01-24T05:52:33.452Z,1.73
2024-01-24T05:53:36.033Z,1.75
2024-01-24T05:54:38.676Z,1.76
2024-01-24T05:55:41.320Z,1.78
2024-01-24T05:56:44.149Z,1.79
2024-01-24T05:57:47.922Z,1.81
2024-01-24T05:58:50.561Z,1.83
2024-01-24T05:59:53.302Z,1.85
2024-01-24T06:00:56.036Z,1.86
2024-01-24T06:01:58.711Z,1.88
2024-01-24T06:03:01.336Z,1.89
2024-01-24T06:04:04.088Z,1.90
2024-01-24T06:05:07.897Z,1.91
2024-01-24T06:06:10.733Z,1.93
2024-01-24T06:07:15.322Z,1.94
2024-01-24T06:08:17.989Z,1.95
2024-01-24T06:09:21.968Z,1.97
2024-01-24T06:10:24.674Z,1.98
2024-01-24T06:11:27.284Z,1.99
2024-01-24T06:12:29.933Z,2.00
2024-01-24T06:13:32.600Z,2.01
2024-01-24T06:14:35.203Z,2.02
2024-01-24T06:15:38.497Z,2.04
2024-01-24T06:16:41.318Z,2.06
2024-01-24T06:17:44.033Z,2.07
2024-01-24T06:18:46.837Z,2.09
2024-01-24T06:19:51.469Z,2.11
2024-01-24T06:20:54.082Z,2.13
2024-01-24T06:21:56.894Z,2.15
2024-01-24T06:22:59.564Z,2.18
2024-01-24T06:24:02.624Z,2.20
2024-01-24T06:25:08.676Z,2.21
2024-01-24T06:26:11.498Z,2.23
2024-01-24T06:27:14.154Z,2.25
2024-01-24T06:28:16.980Z,2.27
2024-01-24T06:30:14.664Z,2.29
2024-01-24T06:30:42.981Z,2.32
2024-01-24T06:31:47.201Z,2.34
2024-01-24T06:32:50.453Z,2.36
2024-01-24T06:33:53.450Z,2.38
2024-01-24T06:34:56.107Z,2.40
2024-01-24T06:35:59.142Z,2.42
2024-01-24T06:37:01.788Z,2.44
2024-01-24T06:38:04.612Z,2.46
2024-01-24T06:39:11.150Z,2.48
2024-01-24T06:40:15.566Z,2.51
2024-01-24T06:41:18.191Z,2.53
2024-01-24T06:42:21.360Z,2.55
2024-01-24T06:43:24.028Z,2.58
2024-01-24T06:44:27.363Z,2.60
2024-01-24T06:45:29.926Z,2.62
2024-01-24T06:46:32.925Z,2.64
2024-01-24T06:47:35.878Z,2.65
2024-01-24T06:48:38.678Z,2.67
2024-01-24T06:49:42.337Z,2.69
2024-01-24T06:50:46.172Z,2.70
2024-01-24T06:51:49.044Z,2.72
2024-01-24T06:52:52.306Z,2.73
2024-01-24T06:53:55.865Z,2.75
2024-01-24T06:54:59.170Z,2.77
2024-01-24T06:56:02.488Z,2.78
2024-01-24T06:57:05.289Z,2.80
2024-01-24T06:58:08.942Z,2.81
2024-01-24T06:59:12.856Z,2.83
2024-01-24T07:00:16.106Z,2.85
2024-01-24T07:01:19.079Z,2.86
2024-01-24T07:02:21.763Z,2.88
2024-01-24T07:03:24.503Z,2.90
2024-01-24T07:04:27.778Z,2.92
2024-01-24T07:05:30.512Z,2.93
2024-01-24T07:06:33.254Z,2.94
2024-01-24T07:07:36.357Z,2.95
2024-01-24T07:08:42.564Z,2.96
2024-01-24T07:09:45.677Z,2.97
2024-01-24T07:10:51.235Z,2.99
2024-01-24T07:11:53.891Z,3.01
2024-01-24T07:12:57.244Z,3.02
2024-01-24T07:13:59.970Z,3.04
2024-01-24T07:15:02.608Z,3.06
2024-01-24T07:16:08.768Z,3.08
2024-01-24T07:17:11.571Z,3.10
2024-01-24T07:18:17.189Z,3.12
2024-01-24T07:19:20.028Z,3.15
2024-01-24T07:20:22.704Z,3.17
2024-01-24T07:21:26.540Z,3.19
2024-01-24T07:22:29.237Z,3.20
2024-01-24T07:23:32.110Z,3.22
2024-01-24T07:24:34.838Z,3.24
2024-01-24T07:25:37.532Z,3.26
2024-01-24T07:26:40.339Z,3.27
2024-01-24T07:27:46.165Z,3.30
2024-01-24T07:28:49.557Z,3.32
2024-01-24T07:29:52.312Z,3.34
2024-01-24T07:30:54.907Z,3.36
2024-01-24T07:31:57.539Z,3.38
2024-01-24T07:33:01.127Z,3.40
2024-01-24T07:34:03.830Z,3.42
2024-01-24T07:35:07.117Z,3.44
2024-01-24T07:36:09.895Z,3.45
2024-01-24T07:37:12.500Z,3.47
2024-01-24T07:38:15.112Z,3.49
2024-01-24T07:39:17.801Z,3.52
2024-01-24T07:40:20.473Z,3.54
2024-01-24T07:41:24.691Z,3.57
2024-01-24T07:42:27.583Z,3.59
2024-01-24T07:43:34.182Z,3.61
2024-01-24T07:44:38.100Z,3.63
2024-01-24T07:45:40.938Z,3.66
2024-01-24T07:46:44.634Z,3.69
2024-01-24T07:47:48.967Z,3.71
2024-01-24T07:48:52.068Z,3.74
2024-01-24T07:49:56.801Z,3.77
2024-01-24T07:50:59.944Z,3.80
2024-01-24T07:52:03.147Z,3.83
2024-01-24T07:53:06.051Z,3.85
2024-01-24T07:54:11.855Z,3.88
2024-01-24T07:55:17.586Z,3.91
2024-01-24T07:56:26.116Z,3.95
2024-01-24T07:57:30.197Z,3.98
2024-01-24T07:58:33.111Z,4.01
2024-01-24T07:59:36.256Z,4.04
2024-01-24T08:00:38.888Z,4.08
2024-01-24T08:01:41.937Z,4.11
2024-01-24T08:02:45.522Z,4.14
2024-01-24T08:03:50.942Z,4.17
2024-01-24T08:04:54.304Z,4.20
2024-01-24T08:05:57.468Z,4.23
2024-01-24T08:07:00.364Z,4.25
2024-01-24T08:08:11.262Z,4.28
2024-01-24T08:09:14.122Z,4.31
2024-01-24T08:10:17.110Z,4.34
2024-01-24T08:11:22.772Z,4.36
2024-01-24T08:12:25.707Z,4.38
2024-01-24T08:13:28.528Z,4.39
2024-01-24T08:14:31.495Z,4.42
2024-01-24T08:15:34.746Z,4.44
2024-01-24T08:16:37.551Z,4.47
2024-01-24T08:17:40.429Z,4.49
2024-01-24T08:18:43.242Z,4.52
2024-01-24T08:19:46.587Z,4.55
2024-01-24T08:20:51.643Z,4.56
2024-01-24T08:21:54.865Z,4.59
2024-01-24T08:22:57.628Z,4.62
2024-01-24T08:24:00.332Z,4.64
2024-01-24T08:25:03.704Z,4.67
2024-01-24T08:26:06.303Z,4.69
2024-01-24T08:27:09.061Z,4.71
2024-01-24T08:28:12.312Z,4.73
2024-01-24T08:29:22.075Z,4.75
2024-01-24T08:30:29.011Z,4.77
2024-01-24T08:31:31.854Z,4.78
2024-01-24T08:32:35.733Z,4.81
2024-01-24T08:33:38.634Z,4.83
2024-01-24T08:34:41.444Z,4.86
2024-01-24T08:35:44.086Z,4.88
2024-01-24T08:36:46.789Z,4.89
2024-01-24T08:37:49.503Z,4.91
2024-01-24T08:38:52.523Z,4.93
2024-01-24T08:39:55.586Z,4.95
2024-01-24T08:40:58.402Z,4.96
2024-01-24T08:42:01.622Z,4.98
2024-01-24T08:43:04.384Z,5.00
2024-01-24T08:44:07.202Z,5.02
2024-01-24T08:45:12.571Z,5.04
2024-01-24T08:46:15.419Z,5.05
2024-01-24T08:47:18.280Z,5.06
2024-01-24T08:48:23.258Z,5.07
2024-01-24T08:49:26.692Z,5.08
2024-01-24T08:50:29.368Z,5.09
2024-01-24T08:51:33.132Z,5.10
2024-01-24T08:52:36.692Z,5.11
2024-01-24T08:53:39.448Z,5.12
2024-01-24T08:54:45.601Z,5.13
2024-01-24T08:55:48.750Z,5.13
2024-01-24T08:56:52.074Z,5.15
2024-01-24T08:57:55.521Z,5.15
2024-01-24T08:58:58.866Z,5.16
2024-01-24T09:00:01.525Z,5.18
2024-01-24T09:01:04.972Z,5.18
2024-01-24T09:02:10.939Z,5.19
2024-01-24T09:03:13.996Z,5.20
2024-01-24T09:04:17.040Z,5.22
2024-01-24T09:05:22.298Z,5.24
2024-01-24T09:06:26.483Z,5.25
2024-01-24T09:07:29.621Z,5.27
2024-01-24T09:08:32.296Z,5.29
2024-01-24T09:09:37.588Z,5.30
2024-01-24T09:10:41.731Z,5.33
2024-01-24T09:11:50.686Z,5.35
2024-01-24T09:12:59.589Z,5.38
2024-01-24T09:14:02.262Z,5.40
2024-01-24T09:15:05.792Z,5.43
2024-01-24T09:16:08.848Z,5.46
2024-01-24T09:17:14.712Z,5.49
2024-01-24T09:18:19.133Z,5.53
2024-01-24T09:19:23.173Z,5.56
2024-01-24T09:20:26.077Z,5.59
2024-01-24T09:21:28.940Z,5.62
2024-01-24T09:22:31.790Z,5.65
2024-01-24T09:23:34.827Z,5.67
2024-01-24T09:24:38.451Z,5.70
2024-01-24T09:25:41.111Z,5.74
2024-01-24T09:26:43.988Z,5.76
2024-01-24T09:27:47.208Z,5.78
2024-01-24T09:28:52.632Z,5.80
2024-01-24T09:29:55.301Z,5.81
2024-01-24T09:30:58.073Z,5.83
2024-01-24T09:32:00.844Z,5.85
2024-01-24T09:33:05.324Z,5.86
2024-01-24T09:34:08.264Z,5.87
2024-01-24T09:35:11.474Z,5.89
2024-01-24T09:36:14.791Z,5.89
2024-01-24T09:37:17.438Z,5.91
2024-01-24T09:38:20.179Z,5.92
2024-01-24T09:39:28.936Z,5.92
2024-01-24T09:40:32.095Z,5.93
2024-01-24T09:41:43.909Z,5.93
2024-01-24T09:42:46.851Z,5.93
2024-01-24T09:43:49.978Z,5.93
2024-01-24T09:44:52.775Z,5.93
2024-01-24T09:45:58.171Z,5.94
2024-01-24T09:47:03.175Z,5.95
2024-01-24T09:48:08.633Z,5.95
2024-01-24T09:49:11.748Z,5.95
2024-01-24T09:50:15.548Z,5.95
2024-01-24T09:51:18.924Z,5.96
2024-01-24T09:52:27.947Z,5.97
2024-01-24T09:53:33.678Z,5.97
2024-01-24T09:54:36.872Z,5.97
2024-01-24T09:55:39.757Z,5.98
2024-01-24T09:56:42.865Z,5.99
2024-01-24T09:57:46.672Z,5.99
2024-01-24T09:58:49.525Z,5.99
2024-01-24T09:59:52.873Z,5.99
2024-01-24T10:00:58.115Z,6.00
2024-01-24T10:02:00.935Z,6.00
2024-01-24T10:03:04.427Z,6.01
2024-01-24T10:04:08.055Z,6.02
2024-01-24T10:05:14.749Z,6.03
2024-01-24T10:06:17.679Z,6.03
2024-01-24T10:07:21.134Z,6.04
2024-01-24T10:08:27.099Z,6.04
2024-01-24T10:09:30.041Z,6.05
2024-01-24T10:10:33.011Z,6.05
2024-01-24T10:11:35.614Z,6.05
2024-01-24T10:13:02.304Z,6.05
2024-01-24T10:14:05.052Z,6.05
2024-01-24T10:15:08.922Z,6.05
2024-01-24T10:16:12.001Z,6.05
2024-01-24T10:17:15.269Z,6.05
2024-01-24T10:18:18.362Z,6.06
2024-01-24T10:19:25.825Z,6.07
2024-01-24T10:20:28.874Z,6.08
2024-01-24T10:21:31.743Z,6.07
2024-01-24T10:22:34.803Z,6.07
2024-01-24T10:23:37.637Z,6.07
2024-01-24T10:24:41.803Z,6.07
2024-01-24T10:25:44.973Z,6.07
2024-01-24T10:26:47.689Z,6.06
2024-01-24T10:27:51.646Z,6.06
2024-01-24T10:28:55.993Z,6.07
2024-01-24T10:30:00.496Z,6.07
2024-01-24T10:31:05.702Z,6.07
2024-01-24T10:32:10.812Z,6.07
2024-01-24T10:33:15.890Z,6.07
2024-01-24T10:34:21.416Z,6.04
2024-01-24T10:35:27.645Z,5.99
2024-01-24T10:36:35.054Z,6.00
2024-01-24T10:37:38.986Z,6.01
2024-01-24T10:38:59.564Z,6.03
2024-01-24T10:40:13.186Z,6.05
2024-01-24T10:41:18.113Z,6.08
2024-01-24T10:42:21.698Z,6.09
2024-01-24T10:43:25.631Z,6.10
2024-01-24T10:44:33.870Z,6.10
2024-01-24T10:45:39.194Z,6.12
2024-01-24T10:46:42.426Z,6.14
2024-01-24T10:47:46.238Z,6.16
2024-01-24T10:48:50.500Z,6.17
2024-01-24T10:49:54.158Z,6.17
2024-01-24T10:50:58.492Z,6.17
2024-01-24T10:52:02.237Z,6.18
2024-01-24T10:53:06.079Z,6.18
2024-01-24T10:54:10.602Z,6.19
2024-01-24T10:55:14.234Z,6.19
2024-01-24T10:56:17.302Z,6.19
2024-01-24T10:57:20.987Z,6.20
2024-01-24T10:58:24.202Z,6.20
2024-01-24T10:59:30.139Z,6.20
2024-01-24T11:00:34.966Z,6.19
2024-01-24T11:01:38.204Z,6.19
2024-01-24T11:02:42.896Z,6.20
2024-01-24T11:03:48.994Z,6.20
2024-01-24T11:04:53.341Z,6.21
2024-01-24T11:06:00.316Z,6.21
2024-01-24T11:07:08.538Z,6.21
2024-01-24T11:08:36.088Z,6.22
2024-01-24T11:10:25.545Z,6.22
2024-01-24T11:11:32.438Z,6.21
2024-01-24T11:12:35.361Z,6.21
2024-01-24T11:13:38.672Z,6.21
2024-01-24T11:14:46.791Z,6.20
2024-01-24T11:15:49.691Z,6.20
2024-01-24T11:16:52.424Z,6.20
2024-01-24T11:18:24.281Z,6.20
2024-01-24T11:19:29.870Z,6.20
2024-01-24T11:20:33.664Z,6.20
2024-01-24T11:21:36.890Z,6.20
2024-01-24T11:22:40.265Z,6.21
2024-01-24T11:23:47.524Z,6.22
2024-01-24T11:24:51.568Z,6.22
2024-01-24T11:25:54.739Z,6.23
2024-01-24T11:26:59.014Z,6.24
2024-01-24T11:28:11.623Z,6.24
2024-01-24T11:30:36.820Z,6.26
2024-01-24T11:31:42.188Z,6.26
2024-01-24T11:32:59.622Z,6.29
2024-01-24T11:34:21.215Z,6.31
2024-01-24T11:35:33.582Z,6.33
2024-01-24T11:36:55.382Z,6.35
2024-01-24T11:38:16.276Z,6.38
2024-01-24T11:39:33.071Z,6.42
2024-01-24T11:40:38.010Z,6.44
2024-01-24T11:41:42.655Z,6.45
2024-01-24T11:42:54.652Z,6.45
2024-01-24T11:43:58.401Z,6.48
2024-01-24T11:45:23.228Z,6.51
2024-01-24T11:46:26.918Z,6.53
2024-01-24T11:47:31.701Z,6.55
2024-01-24T11:48:36.601Z,6.57
2024-01-24T11:49:40.189Z,6.60
2024-01-24T11:50:47.297Z,6.62
2024-01-24T11:52:02.507Z,6.64
2024-01-24T11:53:09.358Z,6.66
2024-01-24T11:54:18.690Z,6.68
2024-01-24T11:55:29.578Z,6.71
2024-01-24T11:56:37.833Z,6.72
2024-01-24T11:57:41.339Z,6.74
2024-01-24T11:58:44.399Z,6.75
2024-01-24T11:59:47.448Z,6.77
2024-01-24T12:01:15.114Z,6.79
2024-01-24T12:02:38.930Z,6.80
2024-01-24T12:03:52.493Z,6.82
2024-01-24T12:04:55.393Z,6.84
2024-01-24T12:05:59.401Z,6.85
2024-01-24T12:07:06.017Z,6.86
2024-01-24T12:08:09.405Z,6.87
2024-01-24T12:09:13.495Z,6.88
2024-01-24T12:10:16.255Z,6.88
2024-01-24T12:11:19.281Z,6.88
2024-01-24T12:12:22.956Z,6.88
2024-01-24T12:13:28.135Z,6.89
2024-01-24T12:14:31.652Z,6.89
2024-01-24T12:15:35.355Z,6.89
2024-01-24T12:16:40.953Z,6.88
2024-01-24T12:17:44.912Z,6.88
2024-01-24T12:18:48.572Z,6.87
2024-01-24T12:19:51.598Z,6.86
2024-01-24T12:20:58.263Z,6.85
2024-01-24T12:22:07.536Z,6.84
2024-01-24T12:23:14.796Z,6.83
2024-01-24T12:24:17.673Z,6.82
2024-01-24T12:25:20.461Z,6.80
2024-01-24T12:26:23.389Z,6.80
2024-01-24T12:27:27.496Z,6.80
2024-01-24T12:28:31.601Z,6.79
2024-01-24T12:29:34.619Z,6.77
2024-01-24T12:30:37.563Z,6.76
2024-01-24T12:31:46.334Z,6.75
2024-01-24T12:32:49.831Z,6.73
2024-01-24T12:33:53.206Z,6.71
2024-01-24T12:34:56.555Z,6.70
2024-01-24T12:36:06.131Z,6.69
2024-01-24T12:37:09.360Z,6.68
2024-01-24T12:38:12.715Z,6.67
2024-01-24T12:39:16.342Z,6.65
2024-01-24T12:40:19.112Z,6.64
2024-01-24T12:41:23.112Z,6.64
2024-01-24T12:42:26.192Z,6.63
2024-01-24T12:43:29.111Z,6.63
2024-01-24T12:44:31.941Z,6.62
2024-01-24T12:45:35.544Z,6.61
2024-01-24T12:46:40.415Z,6.60
2024-01-24T12:47:44.132Z,6.60
2024-01-24T12:48:49.025Z,6.59
2024-01-24T12:49:53.090Z,6.59
2024-01-24T12:50:56.070Z,6.59
2024-01-24T12:51:58.840Z,6.59
2024-01-24T12:53:01.541Z,6.59
2024-01-24T12:54:04.339Z,6.58
2024-01-24T12:55:08.501Z,6.58
2024-01-24T12:56:11.263Z,6.58
2024-01-24T12:57:13.916Z,6.58
2024-01-24T12:58:16.825Z,6.58
2024-01-24T12:59:19.831Z,6.58
2024-01-24T13:00:22.641Z,6.59
2024-01-24T13:01:25.660Z,6.60
2024-01-24T13:02:31.405Z,6.61
2024-01-24T13:03:34.353Z,6.61
2024-01-24T13:04:37.341Z,6.62
2024-01-24T13:05:46.471Z,6.63
2024-01-24T13:06:51.413Z,6.65
2024-01-24T13:07:55.029Z,6.66
2024-01-24T13:08:57.911Z,6.67
2024-01-24T13:10:03.586Z,6.67
2024-01-24T13:11:12.337Z,6.68
2024-01-24T13:12:15.268Z,6.69
2024-01-24T13:13:18.806Z,6.70
2024-01-24T13:14:23.196Z,6.70
2024-01-24T13:15:26.146Z,6.70
2024-01-24T13:16:29.209Z,6.71
2024-01-24T13:17:31.915Z,6.71
2024-01-24T13:18:35.076Z,6.71
2024-01-24T13:19:37.853Z,6.70
2024-01-24T13:20:46.866Z,6.70
2024-01-24T13:21:49.600Z,6.71
2024-01-24T13:22:52.575Z,6.71
2024-01-24T13:23:58.135Z,6.71
2024-01-24T13:25:01.204Z,6.71
2024-01-24T13:26:04.002Z,6.70
2024-01-24T13:27:07.930Z,6.70
2024-01-24T13:28:11.427Z,6.70
2024-01-24T13:29:15.402Z,6.70
2024-01-24T13:30:17.998Z,6.70
2024-01-24T13:31:20.712Z,6.70
2024-01-24T13:32:23.383Z,6.70
2024-01-24T13:33:26.211Z,6.69
2024-01-24T13:34:29.034Z,6.69
2024-01-24T13:35:31.698Z,6.69
2024-01-24T13:36:34.541Z,6.68
2024-01-24T13:37:37.781Z,6.67
2024-01-24T13:38:41.917Z,6.66
2024-01-24T13:39:44.749Z,6.65
2024-01-24T13:40:47.621Z,6.64
2024-01-24T13:41:50.216Z,6.61
2024-01-24T13:42:53.637Z,6.60
2024-01-24T13:43:56.221Z,6.58
2024-01-24T13:44:58.857Z,6.57
2024-01-24T13:46:02.224Z,6.55
2024-01-24T13:47:04.915Z,6.53
2024-01-24T13:48:08.051Z,6.51
2024-01-24T13:49:11.249Z,6.49
2024-01-24T13:50:14.041Z,6.47
2024-01-24T13:51:19.197Z,6.45
2024-01-24T13:52:27.307Z,6.45
2024-01-24T13:53:30.068Z,6.44
2024-01-24T13:54:32.891Z,6.44
2024-01-24T13:55:35.650Z,6.44
2024-01-24T13:56:38.392Z,6.43
2024-01-24T13:57:43.744Z,6.42
2024-01-24T13:58:47.562Z,6.42
2024-01-24T13:59:50.670Z,6.41
2024-01-24T14:00:53.963Z,6.41
2024-01-24T14:02:00.135Z,6.40
2024-01-24T14:03:04.190Z,6.40
2024-01-24T14:04:06.881Z,6.40
2024-01-24T14:05:11.107Z,6.40
2024-01-24T14:06:14.407Z,6.39
2024-01-24T14:07:16.984Z,6.39
2024-01-24T14:08:19.560Z,6.39
2024-01-24T14:09:22.336Z,6.38
2024-01-24T14:10:24.924Z,6.38
2024-01-24T14:11:27.961Z,6.37
2024-01-24T14:12:30.628Z,6.37